createdAt,value
2023-03-05T00:01:33.159Z,100919.97
2023-03-05T00:04:00.300Z,100919.13
2023-03-05T00:06:30.815Z,100922.06
2023-03-05T00:08:58.483Z,100916.53
2023-03-05T00:11:30.102Z,100912.00
2023-03-05T00:14:00.476Z,100913.84
2023-03-05T00:16:28.773Z,100914.81
2023-03-05T00:18:57.318Z,100915.94
2023-03-05T00:21:28.628Z,100908.59
2023-03-05T00:23:58.604Z,100905.03
2023-03-05T00:26:27.152Z,100907.59
2023-03-05T00:28:55.446Z,100900.09
2023-03-05T00:31:25.432Z,100910.88
2023-03-05T00:33:56.699Z,100906.72
2023-03-05T00:36:27.151Z,100895.72
2023-03-05T00:38:58.941Z,100899.38
2023-03-05T00:41:26.038Z,100904.50
2023-03-05T00:43:52.536Z,100903.19
2023-03-05T00:46:27.756Z,100898.19
2023-03-05T00:48:58.278Z,100895.13
2023-03-05T00:51:27.197Z,100894.38
2023-03-05T00:53:56.165Z,100892.66
2023-03-05T00:56:23.110Z,100888.97
2023-03-05T00:58:49.621Z,100884.13
2023-03-05T01:01:19.297Z,100880.56
2023-03-05T01:03:48.491Z,100879.00
2023-03-05T01:06:20.438Z,100878.75
2023-03-05T01:08:47.035Z,100875.31
2023-03-05T01:11:16.177Z,100868.59
2023-03-05T01:13:44.668Z,100869.59
2023-03-05T01:16:13.734Z,100866.28
2023-03-05T01:18:43.417Z,100864.56
2023-03-05T01:21:10.522Z,100858.47
2023-03-05T01:23:37.457Z,100862.41
2023-03-05T01:26:06.232Z,100856.28
2023-03-05T01:28:33.198Z,100850.91
2023-03-05T01:31:05.435Z,100851.91
2023-03-05T01:33:31.977Z,100845.66
2023-03-05T01:36:00.886Z,100847.59
2023-03-05T01:38:27.353Z,100845.38
2023-03-05T01:40:57.891Z,100840.38
2023-03-05T01:43:28.053Z,100833.28
2023-03-05T01:46:31.973Z,100831.00
2023-03-05T01:49:25.516Z,100829.41
2023-03-05T01:52:03.033Z,100832.25
2023-03-05T01:54:35.168Z,100836.78
2023-03-05T01:57:13.492Z,100834.47
2023-03-05T01:59:42.879Z,100833.88
2023-03-05T02:02:09.544Z,100831.91
2023-03-05T02:04:54.401Z,100830.03
2023-03-05T02:07:21.526Z,100824.53
2023-03-05T02:09:47.948Z,100834.84
2023-03-05T02:12:23.687Z,100833.00
2023-03-05T02:15:00.318Z,100821.38
2023-03-05T02:17:41.796Z,100825.19
2023-03-05T02:20:16.401Z,100821.63
2023-03-05T02:22:42.935Z,100816.50
2023-03-05T02:25:29.382Z,100812.84
2023-03-05T02:28:01.763Z,100813.81
2023-03-05T02:30:28.691Z,100809.69
2023-03-05T02:33:02.167Z,100812.38
2023-03-05T02:35:29.101Z,100804.28
2023-03-05T02:37:57.389Z,100807.97
2023-03-05T02:40:24.207Z,100809.94
2023-03-05T02:42:58.345Z,100802.72
2023-03-05T02:45:24.790Z,100804.81
2023-03-05T02:47:53.137Z,100793.19
2023-03-05T02:50:28.821Z,100789.75
2023-03-05T02:52:58.632Z,100791.47
2023-03-05T02:55:30.709Z,100790.75
2023-03-05T02:57:58.475Z,100782.41
2023-03-05T03:00:32.768Z,100786.34
2023-03-05T03:03:01.945Z,100783.78
2023-03-05T03:05:28.808Z,100779.84
2023-03-05T03:07:55.273Z,100770.53
2023-03-05T03:10:21.700Z,100771.75
2023-03-05T03:12:48.178Z,100771.38
2023-03-05T03:15:19.025Z,100777.75
2023-03-05T03:17:45.802Z,100765.41
2023-03-05T03:20:19.284Z,100754.63
2023-03-05T03:22:48.757Z,100756.72
2023-03-05T03:25:21.862Z,100754.91
2023-03-05T03:27:48.634Z,100751.34
2023-03-05T03:30:17.951Z,100755.59
2023-03-05T03:32:45.360Z,100753.78
2023-03-05T03:35:15.720Z,100752.53
2023-03-05T03:37:42.198Z,100746.66
2023-03-05T03:40:09.841Z,100748.38
2023-03-05T03:43:01.688Z,100748.28
2023-03-05T03:45:26.421Z,100741.50
2023-03-05T03:47:53.214Z,100740.38
2023-03-05T03:50:25.109Z,100738.22
2023-03-05T03:52:52.695Z,100734.81
2023-03-05T03:55:19.164Z,100746.41
2023-03-05T03:57:46.122Z,100739.47
2023-03-05T04:00:17.677Z,100730.41
2023-03-05T04:02:46.674Z,100729.53
2023-03-05T04:05:13.785Z,100734.34
2023-03-05T04:08:02.921Z,100731.53
2023-03-05T04:10:32.548Z,100721.72
2023-03-05T04:13:00.345Z,100729.66
2023-03-05T04:15:27.099Z,100722.59
2023-03-05T04:17:53.690Z,100717.22
2023-03-05T04:20:20.214Z,100717.47
2023-03-05T04:22:56.613Z,100709.41
2023-03-05T04:25:23.234Z,100715.59
2023-03-05T04:27:49.743Z,100712.09
2023-03-05T04:30:16.749Z,100713.78
2023-03-05T04:32:45.364Z,100708.00
2023-03-05T04:35:18.149Z,100707.16
2023-03-05T04:37:44.656Z,100713.13
2023-03-05T04:40:14.173Z,100706.03
2023-03-05T04:42:43.086Z,100706.88
2023-03-05T04:45:12.810Z,100710.44
2023-03-05T04:47:39.528Z,100705.91
2023-03-05T04:50:07.617Z,100707.94
2023-03-05T04:52:52.152Z,100706.75
2023-03-05T04:55:23.009Z,100700.50
2023-03-05T04:57:58.740Z,100703.47
2023-03-05T05:00:43.466Z,100700.78
2023-03-05T05:03:10.699Z,100696.38
2023-03-05T05:05:49.249Z,100700.03
2023-03-05T05:08:15.628Z,100698.47
2023-03-05T05:13:26.344Z,100700.31
2023-03-05T05:16:02.100Z,100699.88
2023-03-05T05:18:49.486Z,100692.78
2023-03-05T05:21:16.131Z,100689.22
2023-03-05T05:23:56.530Z,100693.63
2023-03-05T05:26:25.214Z,100690.06
2023-03-05T05:29:05.113Z,100686.41
2023-03-05T05:31:31.760Z,100687.50
2023-03-05T05:34:13.048Z,100693.28
2023-03-05T05:36:42.407Z,100684.97
2023-03-05T05:39:12.568Z,100690.47
2023-03-05T05:41:41.662Z,100691.31
2023-03-05T05:44:17.737Z,100688.75
2023-03-05T05:47:06.391Z,100690.34
2023-03-05T05:49:38.193Z,100691.59
2023-03-05T05:52:16.190Z,100695.84
2023-03-05T05:54:42.764Z,100688.50
2023-03-05T05:57:40.995Z,100685.19
2023-03-05T06:00:35.308Z,100686.41
2023-03-05T06:03:12.498Z,100681.72
2023-03-05T06:05:46.428Z,100679.16
2023-03-05T06:08:21.471Z,100684.03
2023-03-05T06:10:59.297Z,100682.31
2023-03-05T06:13:32.312Z,100680.59
2023-03-05T06:16:10.349Z,100680.97
2023-03-05T06:18:40.104Z,100675.56
2023-03-05T06:21:25.991Z,100678.38
2023-03-05T06:23:52.530Z,100683.78
2023-03-05T06:26:41.596Z,100688.28
2023-03-05T06:29:39.236Z,100686.47
2023-03-05T06:32:11.233Z,100686.47
2023-03-05T06:34:39.989Z,100677.53
2023-03-05T06:37:07.560Z,100682.91
2023-03-05T06:39:41.002Z,100677.53
2023-03-05T06:42:13.350Z,100671.00
2023-03-05T06:44:42.638Z,100675.16
2023-03-05T06:47:14.802Z,100672.72
2023-03-05T06:49:48.908Z,100677.84
2023-03-05T06:52:29.772Z,100684.25
2023-03-05T06:55:22.611Z,100684.09
2023-03-05T06:57:54.729Z,100677.44
2023-03-05T07:00:21.864Z,100680.72
2023-03-05T07:03:03.456Z,100675.94
2023-03-05T07:08:12.649Z,100673.44
2023-03-05T07:10:48.074Z,100679.56
2023-03-05T07:13:14.815Z,100672.91
2023-03-05T07:15:48.303Z,100671.78
2023-03-05T07:18:32.433Z,100667.84
2023-03-05T07:21:10.446Z,100674.66
2023-03-05T07:26:24.821Z,100676.69
2023-03-05T07:28:58.137Z,100680.38
2023-03-05T07:31:55.499Z,100678.88
2023-03-05T07:34:38.940Z,100666.97
2023-03-05T07:37:07.973Z,100665.16
2023-03-05T07:39:34.554Z,100661.06
2023-03-05T07:42:09.968Z,100661.22
2023-03-05T07:44:51.889Z,100661.66
2023-03-05T07:47:19.892Z,100667.34
2023-03-05T07:52:48.625Z,100663.00
2023-03-05T07:55:20.476Z,100666.09
2023-03-05T07:57:55.477Z,100665.84
2023-03-05T08:00:29.987Z,100664.97
2023-03-05T08:02:58.797Z,100666.97
2023-03-05T08:05:25.273Z,100671.25
2023-03-05T08:08:18.696Z,100680.91
2023-03-05T08:10:57.325Z,100667.53
2023-03-05T08:13:24.104Z,100677.19
2023-03-05T08:15:50.842Z,100673.81
2023-03-05T08:18:19.643Z,100675.22
2023-03-05T08:20:52.286Z,100670.06
2023-03-05T08:23:28.493Z,100667.47
2023-03-05T08:26:40.290Z,100656.06
2023-03-05T08:29:09.178Z,100663.56
2023-03-05T08:32:06.208Z,100664.91
2023-03-05T08:35:04.082Z,100652.31
2023-03-05T08:37:55.538Z,100642.78
2023-03-05T08:40:32.893Z,100653.53
2023-03-05T08:43:07.847Z,100639.97
2023-03-05T08:45:49.645Z,100646.50
2023-03-05T08:48:16.528Z,100642.75
2023-03-05T08:51:05.330Z,100648.63
2023-03-05T08:53:31.828Z,100650.03
2023-03-05T08:56:01.377Z,100651.47
2023-03-05T08:58:44.752Z,100654.41
2023-03-05T09:01:18.068Z,100648.78
2023-03-05T09:04:08.085Z,100650.19
2023-03-05T09:07:03.944Z,100657.06
2023-03-05T09:09:42.209Z,100649.72
2023-03-05T09:12:20.876Z,100645.78
2023-03-05T09:15:00.310Z,100645.56
2023-03-05T09:17:48.440Z,100658.09
2023-03-05T09:20:15.991Z,100655.00
2023-03-05T09:22:52.062Z,100642.09
2023-03-05T09:25:21.924Z,100644.38
2023-03-05T09:30:47.435Z,100637.59
2023-03-05T09:33:14.027Z,100623.66
2023-03-05T09:35:41.129Z,100627.06
2023-03-05T09:38:07.653Z,100630.78
2023-03-05T09:40:58.798Z,100626.75
2023-03-05T09:43:37.264Z,100630.06
2023-03-05T09:46:09.677Z,100612.06
2023-03-05T09:48:57.400Z,100616.56
2023-03-05T09:51:34.777Z,100622.56
2023-03-05T09:54:06.563Z,100626.97
2023-03-05T09:56:37.841Z,100636.28
2023-03-05T09:59:27.976Z,100653.06
2023-03-05T10:02:01.291Z,100676.06
2023-03-05T10:04:44.549Z,100657.53
2023-03-05T10:07:20.111Z,100663.34
2023-03-05T10:10:13.850Z,100658.69
2023-03-05T10:12:43.497Z,100649.25
2023-03-05T10:15:15.479Z,100651.41
2023-03-05T10:18:26.744Z,100646.56
2023-03-05T10:21:40.348Z,100639.09
2023-03-05T10:24:38.735Z,100640.09
2023-03-05T10:27:40.518Z,100635.78
2023-03-05T10:30:43.862Z,100643.50
2023-03-05T10:33:22.964Z,100647.22
2023-03-05T10:36:24.334Z,100629.91
2023-03-05T10:39:04.611Z,100624.41
2023-03-05T10:41:53.430Z,100599.47
2023-03-05T10:44:32.249Z,100616.59
2023-03-05T10:47:06.525Z,100597.50
2023-03-05T10:49:38.100Z,100598.75
2023-03-05T10:52:28.684Z,100587.41
2023-03-05T10:55:00.582Z,100606.72
2023-03-05T10:57:40.632Z,100602.38
2023-03-05T11:00:30.522Z,100597.91
2023-03-05T11:03:05.894Z,100583.34
2023-03-05T11:05:46.621Z,100599.44
2023-03-05T11:08:35.449Z,100612.31
2023-03-05T11:11:14.993Z,100597.59
2023-03-05T11:13:52.411Z,100601.38
2023-03-05T11:16:25.954Z,100613.84
2023-03-05T11:19:13.229Z,100599.03
2023-03-05T11:21:44.491Z,100581.03
2023-03-05T11:24:23.607Z,100563.78
2023-03-05T11:26:55.786Z,100573.59
2023-03-05T11:29:28.666Z,100572.38
2023-03-05T11:32:00.800Z,100578.50
2023-03-05T11:34:45.204Z,100567.47
2023-03-05T11:37:24.109Z,100617.47
2023-03-05T11:40:34.473Z,100592.94
2023-03-05T11:43:03.048Z,100604.28
2023-03-05T11:45:34.405Z,100603.16
2023-03-05T11:48:09.482Z,100583.28
2023-03-05T11:50:40.924Z,100592.69
2023-03-05T11:53:31.656Z,100629.81
2023-03-05T11:56:19.017Z,100581.81
2023-03-05T11:59:19.772Z,100584.06
2023-03-05T12:01:50.108Z,100595.44
2023-03-05T12:04:18.397Z,100641.50
2023-03-05T12:06:55.118Z,100628.31
2023-03-05T12:09:27.341Z,100624.25
2023-03-05T12:12:32.658Z,100622.56
2023-03-05T12:15:25.607Z,100582.69
2023-03-05T12:18:08.156Z,100604.88
2023-03-05T12:20:48.071Z,100632.81
2023-03-05T12:23:22.542Z,100586.38
2023-03-05T12:25:52.327Z,100588.09
2023-03-05T12:28:36.391Z,100621.72
2023-03-05T12:31:05.519Z,100606.34
2023-03-05T12:33:41.815Z,100599.09
2023-03-05T12:36:17.158Z,100599.34
2023-03-05T12:38:53.033Z,100563.78
2023-03-05T12:41:22.532Z,100584.28
2023-03-05T12:44:07.314Z,100567.69
2023-03-05T12:46:37.246Z,100568.84
2023-03-05T12:49:19.084Z,100562.41
2023-03-05T12:51:56.490Z,100537.03
2023-03-05T12:54:35.758Z,100540.91
2023-03-05T12:57:14.243Z,100568.28
2023-03-05T12:59:51.940Z,100556.19
2023-03-05T13:02:34.602Z,100553.53
2023-03-05T13:05:22.314Z,100537.91
2023-03-05T13:07:49.657Z,100537.88
2023-03-05T13:10:24.018Z,100510.53
2023-03-05T13:12:55.600Z,100524.63
2023-03-05T13:15:27.132Z,100498.63
2023-03-05T13:18:03.456Z,100510.16
2023-03-05T13:20:37.843Z,100507.59
2023-03-05T13:23:16.206Z,100529.56
2023-03-05T13:25:44.302Z,100514.19
2023-03-05T13:28:17.389Z,100520.72
2023-03-05T13:30:56.438Z,100543.19
2023-03-05T13:33:35.531Z,100517.09
2023-03-05T13:36:02.760Z,100547.00
2023-03-05T13:38:32.825Z,100531.59
2023-03-05T13:41:24.369Z,100520.59
2023-03-05T13:43:55.656Z,100524.94
2023-03-05T13:46:31.302Z,100507.38
2023-03-05T13:49:18.059Z,100520.06
2023-03-05T13:51:52.691Z,100518.91
2023-03-05T13:54:20.229Z,100504.19
2023-03-05T13:56:54.535Z,100483.84
2023-03-05T13:59:28.969Z,100482.00
2023-03-05T14:01:57.551Z,100485.72
2023-03-05T14:04:29.584Z,100479.09
2023-03-05T14:07:08.307Z,100468.25
2023-03-05T14:09:37.450Z,100463.13
2023-03-05T14:12:06.552Z,100458.91
2023-03-05T14:14:38.398Z,100447.75
2023-03-05T14:17:32.298Z,100456.53
2023-03-05T14:20:13.812Z,100432.16
2023-03-05T14:22:43.080Z,100430.13
2023-03-05T14:25:39.679Z,100418.28
2023-03-05T14:28:07.650Z,100415.91
2023-03-05T14:30:36.226Z,100403.91
2023-03-05T14:33:04.186Z,100401.06
2023-03-05T14:35:31.188Z,100401.38
2023-03-05T14:37:59.843Z,100396.25
2023-03-05T14:40:35.022Z,100375.09
2023-03-05T14:43:02.390Z,100381.13
2023-03-05T14:45:36.947Z,100348.66
2023-03-05T14:48:05.939Z,100340.88
2023-03-05T14:50:37.645Z,100349.84
2023-03-05T14:53:09.490Z,100327.34
2023-03-05T14:55:42.677Z,100316.13
2023-03-05T14:58:16.666Z,100325.59
2023-03-05T15:00:44.267Z,100299.69
2023-03-05T15:03:15.200Z,100297.44
2023-03-05T15:05:43.252Z,100306.72
2023-03-05T15:08:27.819Z,100285.25
2023-03-05T15:10:54.875Z,100277.44
2023-03-05T15:13:22.222Z,100296.56
2023-03-05T15:15:50.443Z,100278.63
2023-03-05T15:18:25.376Z,100256.47
2023-03-05T15:20:57.308Z,100264.91
2023-03-05T15:23:24.497Z,100251.38
2023-03-05T15:25:51.350Z,100258.78
2023-03-05T15:28:20.713Z,100242.41
2023-03-05T15:30:47.655Z,100238.84
2023-03-05T15:33:17.702Z,100245.59
2023-03-05T15:35:46.981Z,100242.75
2023-03-05T15:38:13.464Z,100231.06
2023-03-05T15:40:39.972Z,100213.13
2023-03-05T15:43:06.730Z,100205.69
2023-03-05T15:45:33.977Z,100220.25
2023-03-05T15:48:00.809Z,100228.72
2023-03-05T15:50:32.247Z,100225.72
2023-03-05T15:53:07.135Z,100212.72
2023-03-05T15:55:40.148Z,100200.03
2023-03-05T15:58:07.404Z,100219.72
2023-03-05T16:00:40.753Z,100232.59
2023-03-05T16:03:07.389Z,100201.81
2023-03-05T16:05:39.053Z,100233.09
2023-03-05T16:08:06.558Z,100221.13
2023-03-05T16:10:36.558Z,100212.63
2023-03-05T16:13:19.202Z,100230.06
2023-03-05T16:15:52.710Z,100231.06
2023-03-05T16:18:22.027Z,100190.81
2023-03-05T16:20:48.680Z,100208.50
2023-03-05T16:23:15.147Z,100195.97
2023-03-05T16:25:44.873Z,100187.00
2023-03-05T16:28:12.503Z,100193.56
2023-03-05T16:30:40.076Z,100199.13
2023-03-05T16:33:11.923Z,100185.75
2023-03-05T16:35:40.800Z,100168.16
2023-03-05T16:38:09.943Z,100146.81
2023-03-05T16:41:06.304Z,100176.22
2023-03-05T16:43:30.866Z,100183.94
2023-03-05T16:45:59.486Z,100178.88
2023-03-05T16:48:26.050Z,100176.66
2023-03-05T16:51:04.556Z,100157.66
2023-03-05T16:53:33.663Z,100166.97
2023-03-05T16:56:04.068Z,100151.22
2023-03-05T16:58:33.364Z,100139.16
2023-03-05T17:01:01.598Z,100144.22
2023-03-05T17:03:29.028Z,100135.75
2023-03-05T17:05:55.850Z,100123.03
2023-03-05T17:08:24.376Z,100138.03
2023-03-05T17:10:56.172Z,100124.16
2023-03-05T17:13:22.870Z,100129.16
2023-03-05T17:15:49.257Z,100119.31
2023-03-05T17:18:15.791Z,100112.88
2023-03-05T17:20:42.541Z,100126.50
2023-03-05T17:23:09.230Z,100131.50
2023-03-05T17:25:37.136Z,100136.38
2023-03-05T17:28:03.843Z,100138.41
2023-03-05T17:30:39.200Z,100130.97
2023-03-05T17:33:06.319Z,100133.00
2023-03-05T17:35:36.573Z,100137.03
2023-03-05T17:38:10.966Z,100129.25
2023-03-05T17:40:37.587Z,100126.00
2023-03-05T17:43:05.076Z,100134.25
2023-03-05T17:45:32.305Z,100136.94
2023-03-05T17:47:58.968Z,100123.44
2023-03-05T17:50:25.488Z,100129.16
2023-03-05T17:52:52.127Z,100133.16
2023-03-05T17:55:18.666Z,100138.88
2023-03-05T17:57:45.150Z,100139.88
2023-03-05T18:00:26.811Z,100133.81
2023-03-05T18:02:53.640Z,100132.94
2023-03-05T18:05:21.891Z,100133.25
2023-03-05T18:07:51.975Z,100134.25
2023-03-05T18:10:20.640Z,100139.78
2023-03-05T18:12:47.736Z,100141.19
2023-03-05T18:15:17.252Z,100127.88
2023-03-05T18:17:46.070Z,100129.41
2023-03-05T18:20:25.042Z,100113.66
2023-03-05T18:22:54.251Z,100114.38
2023-03-05T18:25:21.965Z,100116.53
2023-03-05T18:27:48.571Z,100115.97
2023-03-05T18:30:15.024Z,100118.13
2023-03-05T18:32:47.545Z,100121.13
2023-03-05T18:35:14.307Z,100117.59
2023-03-05T18:37:43.016Z,100113.50
2023-03-05T18:40:14.616Z,100112.97
2023-03-05T18:42:41.270Z,100105.03
2023-03-05T18:45:10.353Z,100095.25
2023-03-05T18:47:39.434Z,100099.09
2023-03-05T18:50:07.119Z,100100.94
2023-03-05T18:52:33.617Z,100098.41
2023-03-05T18:55:00.243Z,100094.84
2023-03-05T18:57:27.174Z,100081.53
2023-03-05T18:59:53.603Z,100086.06
2023-03-05T19:02:20.049Z,100085.22
2023-03-05T19:04:46.643Z,100086.94
2023-03-05T19:07:13.310Z,100083.50
2023-03-05T19:09:54.817Z,100084.22
2023-03-05T19:12:31.672Z,100082.66
2023-03-05T19:14:59.433Z,100071.06
2023-03-05T19:17:29.469Z,100073.03
2023-03-05T19:19:58.675Z,100075.91
2023-03-05T19:22:26.889Z,100083.28
2023-03-05T19:24:55.694Z,100075.91
2023-03-05T19:27:27.910Z,100059.88
2023-03-05T19:29:55.666Z,100053.50
2023-03-05T19:32:22.206Z,100062.56
2023-03-05T19:34:49.235Z,100065.41
2023-03-05T19:37:15.735Z,100058.16
2023-03-05T19:39:45.093Z,100065.41
2023-03-05T19:42:16.242Z,100063.56
2023-03-05T19:44:42.685Z,100058.88
2023-03-05T19:47:09.195Z,100051.47
2023-03-05T19:49:36.083Z,100048.78
2023-03-05T19:52:04.174Z,100055.16
2023-03-05T19:54:30.671Z,100055.47
2023-03-05T19:56:58.993Z,100041.31
2023-03-05T19:59:28.554Z,100038.75
2023-03-05T20:01:57.472Z,100044.47
2023-03-05T20:04:27.938Z,100039.22
2023-03-05T20:06:54.336Z,100047.47
2023-03-05T20:09:21.053Z,100046.31
2023-03-05T20:11:47.658Z,100046.63
2023-03-05T20:14:16.634Z,100041.00
2023-03-05T20:16:43.836Z,100023.25
2023-03-05T20:19:16.578Z,100024.44
2023-03-05T20:21:44.892Z,100022.91
2023-03-05T20:24:16.409Z,100034.66
2023-03-05T20:26:44.933Z,100025.06
2023-03-05T20:29:12.499Z,100026.03
2023-03-05T20:31:41.414Z,100027.88
2023-03-05T20:34:11.877Z,100027.03
2023-03-05T20:36:40.901Z,100027.88
2023-03-05T20:39:09.902Z,100017.41
2023-03-05T20:41:39.327Z,100020.09
2023-03-05T20:44:06.746Z,100033.03
2023-03-05T20:46:41.818Z,100022.25
2023-03-05T20:49:09.020Z,100013.47
2023-03-05T20:51:37.865Z,100012.88
2023-03-05T20:54:11.696Z,100006.63
2023-03-05T20:56:38.392Z,100005.94
2023-03-05T20:59:08.563Z,100004.25
2023-03-05T21:01:38.041Z,100001.56
2023-03-05T21:04:05.066Z,100015.31
2023-03-05T21:06:32.395Z,99999.44
2023-03-05T21:08:59.948Z,100001.16
2023-03-05T21:11:26.623Z,99995.63
2023-03-05T21:13:53.527Z,99982.53
2023-03-05T21:16:22.925Z,99991.06
2023-03-05T21:18:50.753Z,99982.28
2023-03-05T21:21:20.240Z,99984.00
2023-03-05T21:23:52.212Z,99985.13
2023-03-05T21:26:18.934Z,99985.44
2023-03-05T21:28:45.359Z,99983.19
2023-03-05T21:31:18.144Z,99974.44
2023-03-05T21:33:47.475Z,99970.88
2023-03-05T21:36:18.797Z,99978.44
2023-03-05T21:38:49.400Z,99971.34
2023-03-05T21:41:17.998Z,99976.03
2023-03-05T21:43:47.065Z,99959.88
2023-03-05T21:46:16.120Z,99950.09
2023-03-05T21:48:42.551Z,99961.03
2023-03-05T21:51:13.808Z,99949.09
2023-03-05T21:53:40.212Z,99952.78
2023-03-05T21:56:22.398Z,99950.81
2023-03-05T21:58:51.261Z,99941.63
2023-03-05T22:01:19.503Z,99942.31
2023-03-05T22:03:46.090Z,99936.22
2023-03-05T22:06:18.417Z,99932.00
2023-03-05T22:08:45.096Z,99935.41
2023-03-05T22:11:14.333Z,99930.84
2023-03-05T22:13:41.286Z,99914.69
2023-03-05T22:16:10.610Z,99917.38
2023-03-05T22:18:37.223Z,99918.53
2023-03-05T22:21:04.751Z,99908.75
2023-03-05T22:23:34.519Z,99908.22
2023-03-05T22:26:05.681Z,99901.16
2023-03-05T22:28:34.059Z,99896.44
2023-03-05T22:31:02.880Z,99899.16
2023-03-05T22:33:29.914Z,99893.06
2023-03-05T22:35:56.437Z,99898.28
2023-03-05T22:38:30.348Z,99886.00
2023-03-05T22:40:59.226Z,99890.38
2023-03-05T22:43:25.716Z,99882.59
2023-03-05T22:45:52.408Z,99878.06
2023-03-05T22:48:18.806Z,99881.91
2023-03-05T22:50:57.669Z,99865.75
2023-03-05T22:53:24.130Z,99869.44
2023-03-05T22:55:50.542Z,99868.03
2023-03-05T22:58:17.109Z,99872.44
2023-03-05T23:00:43.537Z,99864.38
2023-03-05T23:03:10.102Z,99865.66
2023-03-05T23:05:40.232Z,99858.44
2023-03-05T23:08:09.284Z,99858.97
2023-03-05T23:10:35.831Z,99856.28
2023-03-05T23:13:02.431Z,99851.03
2023-03-05T23:15:33.393Z,99843.28
2023-03-05T23:18:00.396Z,99838.91
2023-03-05T23:20:30.217Z,99840.75
2023-03-05T23:22:59.155Z,99835.38
2023-03-05T23:25:28.877Z,99830.13
2023-03-05T23:27:57.975Z,99837.53
2023-03-05T23:30:37.129Z,99834.28
2023-03-05T23:33:23.332Z,99831.75
2023-03-05T23:35:50.955Z,99824.66
2023-03-05T23:38:17.625Z,99834.28
2023-03-05T23:40:46.979Z,99821.97
2023-03-05T23:43:14.570Z,99824.50
2023-03-05T23:45:42.476Z,99815.13
2023-03-05T23:48:09.569Z,99818.28
2023-03-05T23:50:38.503Z,99813.75
2023-03-05T23:53:06.030Z,99805.81
2023-03-05T23:55:36.808Z,99810.66
2023-03-05T23:58:03.653Z,99815.19
